createdAt,value
2022-10-05T00:01:01.747Z,22.80
2022-10-05T00:03:36.998Z,22.90
2022-10-05T00:06:05.025Z,23.00
2022-10-05T00:08:35.522Z,23.00
2022-10-05T00:11:08.339Z,23.00
2022-10-05T00:13:36.327Z,23.00
2022-10-05T00:16:13.298Z,23.10
2022-10-05T00:18:41.324Z,23.20
2022-10-05T00:21:16.915Z,23.30
2022-10-05T00:23:44.883Z,23.40
2022-10-05T00:26:20.404Z,23.40
2022-10-05T00:28:49.037Z,23.40
2022-10-05T00:31:20.673Z,23.40
2022-10-05T00:33:49.785Z,23.40
2022-10-05T00:36:18.365Z,23.40
2022-10-05T00:38:46.727Z,23.40
2022-10-05T00:41:21.110Z,23.30
2022-10-05T00:44:12.066Z,23.30
2022-10-05T00:46:54.232Z,23.10
2022-10-05T00:49:37.416Z,23.10
2022-10-05T00:52:20.072Z,23.10
2022-10-05T00:54:55.273Z,23.10
2022-10-05T00:57:35.039Z,22.90
2022-10-05T01:00:08.788Z,22.80
2022-10-05T01:02:48.142Z,22.80
2022-10-05T01:05:25.143Z,22.90
2022-10-05T01:08:09.416Z,22.90
2022-10-05T01:10:43.155Z,22.90
2022-10-05T01:13:21.777Z,22.90
2022-10-05T01:15:56.422Z,22.80
2022-10-05T01:18:34.221Z,23.00
2022-10-05T01:21:07.181Z,22.90
2022-10-05T01:24:14.511Z,23.00
2022-10-05T01:27:00.747Z,22.90
2022-10-05T01:29:36.942Z,22.40
2022-10-05T01:32:15.194Z,22.20
2022-10-05T01:34:45.917Z,22.40
2022-10-05T01:37:20.920Z,22.30
2022-10-05T01:39:56.832Z,22.40
2022-10-05T01:42:35.329Z,22.50
2022-10-05T01:45:11.935Z,22.60
2022-10-05T01:47:45.564Z,22.40
2022-10-05T01:50:23.030Z,22.40
2022-10-05T01:53:04.898Z,22.50
2022-10-05T01:55:42.818Z,22.40
2022-10-05T01:58:23.950Z,22.20
2022-10-05T02:01:01.585Z,22.30
2022-10-05T02:03:34.385Z,22.10
2022-10-05T02:06:07.622Z,21.90
2022-10-05T02:08:40.303Z,21.80
2022-10-05T02:11:11.837Z,22.00
2022-10-05T02:13:44.577Z,21.50
2022-10-05T02:16:18.502Z,21.50
2022-10-05T02:18:52.197Z,21.80
2022-10-05T02:21:22.064Z,22.10
2022-10-05T02:23:53.568Z,22.10
2022-10-05T02:26:23.388Z,22.20
2022-10-05T02:28:55.605Z,22.30
2022-10-05T02:31:29.662Z,22.30
2022-10-05T02:34:27.504Z,22.20
2022-10-05T02:37:13.779Z,22.30
2022-10-05T02:39:53.408Z,22.40
2022-10-05T02:42:29.848Z,22.50
2022-10-05T02:45:08.116Z,22.40
2022-10-05T02:47:49.286Z,22.40
2022-10-05T02:50:27.085Z,22.40
2022-10-05T02:53:06.167Z,22.50
2022-10-05T02:55:42.636Z,22.60
2022-10-05T02:58:16.515Z,22.50
2022-10-05T03:00:50.205Z,22.60
2022-10-05T03:03:29.119Z,22.70
2022-10-05T03:06:04.380Z,22.70
2022-10-05T03:08:41.106Z,22.40
2022-10-05T03:11:16.122Z,22.40
2022-10-05T03:13:49.453Z,22.40
2022-10-05T03:16:31.264Z,22.30
2022-10-05T03:19:14.795Z,22.30
2022-10-05T03:21:54.362Z,22.20
2022-10-05T03:24:40.121Z,21.60
2022-10-05T03:27:18.509Z,21.80
2022-10-05T03:29:55.917Z,21.60
2022-10-05T03:32:33.265Z,21.50
2022-10-05T03:35:07.641Z,21.40
2022-10-05T03:37:43.574Z,21.60
2022-10-05T03:40:23.175Z,21.60
2022-10-05T03:43:02.898Z,21.80
2022-10-05T03:45:37.713Z,21.80
2022-10-05T03:48:10.608Z,21.30
2022-10-05T03:50:46.944Z,21.60
2022-10-05T03:53:20.098Z,21.70
2022-10-05T03:55:55.094Z,21.70
2022-10-05T03:58:29.506Z,21.80
2022-10-05T04:01:04.749Z,21.90
2022-10-05T04:03:39.032Z,22.00
2022-10-05T04:06:15.744Z,21.90
2022-10-05T04:08:50.187Z,21.60
2022-10-05T04:11:25.121Z,21.70
2022-10-05T04:13:58.843Z,21.90
2022-10-05T04:16:29.197Z,22.10
2022-10-05T04:19:05.120Z,22.10
2022-10-05T04:21:39.168Z,21.70
2022-10-05T04:24:14.566Z,21.80
2022-10-05T04:26:51.451Z,22.00
2022-10-05T04:29:29.765Z,22.00
2022-10-05T04:32:09.445Z,22.10
2022-10-05T04:34:54.418Z,22.10
2022-10-05T04:37:31.357Z,22.20
2022-10-05T04:40:16.479Z,21.70
2022-10-05T04:42:50.091Z,21.50
2022-10-05T04:45:31.399Z,21.40
2022-10-05T04:48:37.593Z,21.60
2022-10-05T04:51:17.564Z,21.60
2022-10-05T04:53:58.213Z,21.30
2022-10-05T04:56:35.277Z,21.20
2022-10-05T04:59:34.099Z,21.00
2022-10-05T05:02:08.836Z,21.10
2022-10-05T05:04:51.782Z,21.20
2022-10-05T05:07:38.607Z,21.50
2022-10-05T05:10:44.639Z,21.40
2022-10-05T05:13:38.994Z,21.30
2022-10-05T05:16:12.452Z,21.20
2022-10-05T05:19:05.177Z,21.50
2022-10-05T05:21:42.907Z,21.50
2022-10-05T05:24:20.302Z,21.30
2022-10-05T05:27:05.096Z,21.30
2022-10-05T05:29:44.539Z,21.50
2022-10-05T05:32:24.972Z,21.90
2022-10-05T05:35:08.213Z,22.00
2022-10-05T05:37:40.120Z,22.20
2022-10-05T05:40:16.547Z,22.40
2022-10-05T05:42:55.360Z,22.70
2022-10-05T05:45:34.952Z,22.90
2022-10-05T05:48:09.905Z,23.00
2022-10-05T05:50:49.740Z,23.20
2022-10-05T05:53:21.606Z,23.30
2022-10-05T05:55:54.830Z,23.50
2022-10-05T05:58:30.599Z,23.60
2022-10-05T06:01:03.117Z,23.70
2022-10-05T06:03:38.078Z,23.80
2022-10-05T06:06:11.652Z,23.80
2022-10-05T06:08:44.587Z,23.80
2022-10-05T06:11:30.110Z,23.70
2022-10-05T06:14:05.408Z,23.70
2022-10-05T06:16:42.046Z,23.80
2022-10-05T06:19:14.914Z,23.90
2022-10-05T06:21:48.359Z,23.90
2022-10-05T06:24:23.035Z,23.90
2022-10-05T06:27:27.963Z,23.90
2022-10-05T06:30:06.653Z,24.20
2022-10-05T06:32:58.813Z,24.30
2022-10-05T06:35:42.484Z,24.40
2022-10-05T06:38:32.646Z,24.60
2022-10-05T06:41:12.632Z,24.80
2022-10-05T06:43:59.755Z,25.10
2022-10-05T06:46:53.806Z,25.30
2022-10-05T06:49:58.283Z,25.40
2022-10-05T06:52:52.995Z,25.60
2022-10-05T06:55:31.309Z,25.80
2022-10-05T06:58:07.982Z,25.80
2022-10-05T07:00:41.819Z,25.90
2022-10-05T07:03:23.306Z,26.00
2022-10-05T07:06:02.619Z,26.00
2022-10-05T07:08:48.598Z,26.10
2022-10-05T07:11:28.957Z,26.20
2022-10-05T07:14:20.908Z,26.30
2022-10-05T07:17:07.679Z,26.40
2022-10-05T07:19:45.318Z,26.50
2022-10-05T07:22:34.357Z,26.60
2022-10-05T07:25:11.435Z,26.70
2022-10-05T07:27:49.476Z,26.80
2022-10-05T07:30:21.112Z,26.80
2022-10-05T07:32:59.682Z,26.80
2022-10-05T07:35:57.933Z,26.90
2022-10-05T07:38:32.899Z,26.70
2022-10-05T07:41:07.340Z,26.90
2022-10-05T07:44:01.547Z,26.90
2022-10-05T07:46:46.558Z,27.10
2022-10-05T07:49:24.290Z,27.30
2022-10-05T07:51:58.171Z,26.80
2022-10-05T07:54:31.758Z,26.70
2022-10-05T07:57:07.146Z,26.90
2022-10-05T07:59:41.751Z,26.10
2022-10-05T08:02:20.171Z,26.40
2022-10-05T08:04:56.480Z,26.50
2022-10-05T08:07:25.965Z,25.60
2022-10-05T08:10:00.533Z,26.30
2022-10-05T08:12:33.285Z,26.30
2022-10-05T08:15:06.276Z,26.20
2022-10-05T08:17:42.175Z,25.40
2022-10-05T08:20:36.263Z,25.30
2022-10-05T08:23:15.605Z,25.20
2022-10-05T08:25:51.705Z,25.30
2022-10-05T08:28:24.556Z,25.50
2022-10-05T08:30:57.754Z,26.10
2022-10-05T08:33:31.573Z,25.70
2022-10-05T08:36:08.199Z,25.20
2022-10-05T08:38:38.367Z,26.10
2022-10-05T08:41:52.929Z,26.40
2022-10-05T08:44:57.194Z,27.10
2022-10-05T08:47:58.121Z,27.10
2022-10-05T08:50:48.404Z,27.20
2022-10-05T08:53:26.483Z,27.50
2022-10-05T08:56:11.169Z,27.10
2022-10-05T08:59:22.974Z,27.50
2022-10-05T09:02:16.564Z,27.10
2022-10-05T09:05:01.409Z,27.20
2022-10-05T09:08:06.598Z,27.60
2022-10-05T09:11:03.699Z,27.50
2022-10-05T09:13:48.215Z,27.50
2022-10-05T09:16:33.458Z,27.30
2022-10-05T09:19:47.773Z,26.90
2022-10-05T09:22:17.610Z,26.90
2022-10-05T09:24:56.944Z,26.90
2022-10-05T09:27:37.895Z,27.40
2022-10-05T09:30:32.907Z,27.70
2022-10-05T09:33:29.841Z,27.80
2022-10-05T09:36:36.136Z,27.80
2022-10-05T09:39:28.461Z,28.00
2022-10-05T09:42:48.555Z,27.70
2022-10-05T09:45:36.881Z,28.10
2022-10-05T09:48:36.867Z,28.40
2022-10-05T09:51:29.071Z,28.60
2022-10-05T09:54:29.159Z,28.70
2022-10-05T09:57:35.743Z,28.40
2022-10-05T10:00:45.856Z,28.60
2022-10-05T10:04:07.060Z,28.70
2022-10-05T10:07:14.056Z,28.90
2022-10-05T10:09:54.365Z,28.50
2022-10-05T10:12:48.567Z,28.20
2022-10-05T10:15:43.758Z,27.90
2022-10-05T10:18:47.257Z,28.10
2022-10-05T10:21:33.060Z,28.20
2022-10-05T10:24:14.701Z,28.40
2022-10-05T10:27:02.541Z,28.40
2022-10-05T10:30:27.596Z,28.60
2022-10-05T10:33:16.489Z,28.60
2022-10-05T10:35:55.554Z,28.20
2022-10-05T10:38:42.542Z,28.30
2022-10-05T10:41:52.817Z,28.60
2022-10-05T10:44:58.812Z,28.30
2022-10-05T10:48:02.473Z,28.00
2022-10-05T10:50:57.809Z,28.30
2022-10-05T10:54:09.601Z,28.50
2022-10-05T10:57:03.038Z,28.40
2022-10-05T11:00:15.667Z,28.10
2022-10-05T11:03:16.548Z,27.80
2022-10-05T11:06:23.585Z,27.60
2022-10-05T11:09:23.412Z,28.10
2022-10-05T11:12:20.522Z,27.90
2022-10-05T11:15:05.724Z,28.00
2022-10-05T11:17:53.829Z,27.90
2022-10-05T11:21:01.256Z,28.40
2022-10-05T11:23:43.760Z,28.50
2022-10-05T11:26:33.602Z,28.50
2022-10-05T11:29:31.161Z,28.40
2022-10-05T11:32:21.754Z,28.70
2022-10-05T11:35:31.018Z,28.80
2022-10-05T11:38:15.450Z,28.50
2022-10-05T11:41:18.657Z,28.50
2022-10-05T11:44:15.386Z,28.30
2022-10-05T11:46:54.342Z,28.40
2022-10-05T11:49:40.060Z,28.60
2022-10-05T11:52:14.433Z,28.20
2022-10-05T11:55:11.098Z,28.30
2022-10-05T11:57:48.890Z,28.20
2022-10-05T12:00:19.526Z,28.60
2022-10-05T12:03:20.233Z,28.80
2022-10-05T12:06:05.442Z,28.90
2022-10-05T12:08:43.813Z,29.20
2022-10-05T12:11:30.176Z,29.50
2022-10-05T12:14:06.578Z,29.30
2022-10-05T12:16:41.299Z,29.20
2022-10-05T12:19:17.375Z,28.90
2022-10-05T12:21:50.943Z,28.80
2022-10-05T12:24:27.883Z,29.10
2022-10-05T12:27:02.251Z,29.20
2022-10-05T12:29:39.359Z,29.10
2022-10-05T12:32:13.628Z,28.70
2022-10-05T12:34:50.429Z,29.00
2022-10-05T12:37:38.803Z,28.80
2022-10-05T12:40:22.520Z,28.70
2022-10-05T12:42:58.101Z,29.00
2022-10-05T12:45:45.999Z,29.40
2022-10-05T12:48:44.221Z,29.20
2022-10-05T12:51:20.689Z,29.20
2022-10-05T12:53:57.788Z,29.30
2022-10-05T12:56:37.713Z,29.60
2022-10-05T12:59:14.727Z,30.20
2022-10-05T13:01:54.934Z,30.10
2022-10-05T13:04:33.967Z,29.80
2022-10-05T13:07:33.421Z,29.60
2022-10-05T13:10:12.974Z,29.70
2022-10-05T13:12:53.924Z,29.80
2022-10-05T13:15:28.877Z,30.00
2022-10-05T13:18:11.972Z,29.90
2022-10-05T13:20:46.854Z,30.10
2022-10-05T13:23:22.590Z,30.10
2022-10-05T13:25:58.261Z,30.30
2022-10-05T13:28:32.332Z,30.30
2022-10-05T13:31:07.327Z,30.30
2022-10-05T13:33:55.070Z,30.20
2022-10-05T13:36:30.007Z,30.40
2022-10-05T13:39:03.672Z,30.50
2022-10-05T13:41:43.711Z,30.60
2022-10-05T13:44:22.172Z,30.80
2022-10-05T13:46:55.077Z,30.70
2022-10-05T13:49:29.651Z,30.60
2022-10-05T13:52:07.611Z,30.70
2022-10-05T13:54:42.947Z,30.90
2022-10-05T13:57:21.117Z,31.00
2022-10-05T13:59:54.626Z,31.10
2022-10-05T14:02:28.350Z,31.10
2022-10-05T14:05:02.116Z,31.10
2022-10-05T14:07:35.093Z,31.30
2022-10-05T14:10:05.113Z,31.40
2022-10-05T14:12:40.714Z,31.40
2022-10-05T14:15:23.297Z,31.40
2022-10-05T14:17:52.652Z,31.30
2022-10-05T14:20:25.133Z,31.20
2022-10-05T14:22:58.284Z,31.30
2022-10-05T14:25:26.467Z,31.30
2022-10-05T14:28:02.486Z,31.20
2022-10-05T14:30:32.501Z,31.20
2022-10-05T14:33:16.218Z,31.20
2022-10-05T14:35:51.189Z,31.20
2022-10-05T14:38:21.920Z,31.10
2022-10-05T14:41:17.143Z,31.20
2022-10-05T14:43:59.832Z,31.30
2022-10-05T14:46:29.849Z,31.30
2022-10-05T14:49:22.680Z,31.30
2022-10-05T14:51:53.301Z,31.40
2022-10-05T14:54:33.814Z,31.30
2022-10-05T14:57:08.162Z,31.40
2022-10-05T15:00:10.314Z,31.10
2022-10-05T15:02:56.943Z,31.00
2022-10-05T15:05:31.352Z,31.00
2022-10-05T15:08:09.633Z,31.00
2022-10-05T15:10:44.032Z,30.90
2022-10-05T15:13:16.550Z,30.90
2022-10-05T15:15:50.691Z,30.90
2022-10-05T15:18:37.333Z,30.80
2022-10-05T15:21:33.999Z,30.80
2022-10-05T15:24:07.127Z,30.80
2022-10-05T15:26:47.104Z,31.10
2022-10-05T15:29:47.337Z,31.00
2022-10-05T15:32:28.823Z,31.00
2022-10-05T15:35:17.676Z,30.90
2022-10-05T15:37:51.587Z,30.60
2022-10-05T15:40:25.694Z,30.60
2022-10-05T15:43:03.295Z,30.50
2022-10-05T15:45:34.852Z,30.60
2022-10-05T15:48:06.258Z,30.40
2022-10-05T15:50:42.550Z,30.40
2022-10-05T15:53:19.762Z,30.20
2022-10-05T15:55:53.146Z,29.80
2022-10-05T15:58:54.135Z,29.60
2022-10-05T16:01:42.737Z,29.40
2022-10-05T16:04:17.816Z,29.50
2022-10-05T16:07:08.824Z,29.40
2022-10-05T16:09:53.468Z,29.40
2022-10-05T16:12:43.105Z,29.00
2022-10-05T16:15:22.079Z,29.10
2022-10-05T16:18:12.122Z,28.90
2022-10-05T16:20:49.924Z,28.60
2022-10-05T16:23:29.757Z,28.20
2022-10-05T16:26:11.538Z,27.70
2022-10-05T16:28:49.953Z,27.50
2022-10-05T16:31:23.392Z,27.60
2022-10-05T16:34:02.015Z,27.70
2022-10-05T16:36:44.413Z,27.90
2022-10-05T16:39:20.399Z,28.00
2022-10-05T16:41:54.780Z,27.60
2022-10-05T16:44:35.449Z,27.70
2022-10-05T16:47:27.586Z,27.70
2022-10-05T16:50:04.748Z,27.70
2022-10-05T16:52:34.878Z,27.70
2022-10-05T16:55:12.016Z,27.10
2022-10-05T16:57:46.419Z,26.90
2022-10-05T17:00:23.533Z,26.80
2022-10-05T17:03:12.502Z,26.70
2022-10-05T17:05:55.590Z,26.70
2022-10-05T17:08:49.635Z,26.80
2022-10-05T17:11:33.181Z,26.70
2022-10-05T17:14:18.677Z,26.50
2022-10-05T17:17:15.973Z,26.20
2022-10-05T17:20:10.422Z,26.10
2022-10-05T17:22:50.735Z,26.00
2022-10-05T17:25:26.129Z,25.80
2022-10-05T17:27:56.026Z,25.90
2022-10-05T17:30:38.764Z,26.00
2022-10-05T17:33:24.756Z,25.70
2022-10-05T17:36:17.010Z,25.90
2022-10-05T17:38:51.170Z,25.90
2022-10-05T17:41:23.710Z,25.70
2022-10-05T17:44:24.432Z,25.90
2022-10-05T17:46:55.087Z,25.40
2022-10-05T17:50:15.790Z,25.70
2022-10-05T17:53:03.057Z,26.00
2022-10-05T17:56:02.154Z,26.00
2022-10-05T17:58:58.247Z,25.80
2022-10-05T18:01:30.283Z,25.80
2022-10-05T18:04:30.390Z,25.90
2022-10-05T18:07:05.729Z,25.50
2022-10-05T18:09:54.146Z,25.20
2022-10-05T18:12:45.327Z,24.90
2022-10-05T18:15:48.426Z,25.00
2022-10-05T18:18:38.897Z,24.90
2022-10-05T18:21:32.854Z,24.60
2022-10-05T18:24:34.223Z,24.90
2022-10-05T18:27:26.460Z,25.00
2022-10-05T18:30:13.962Z,24.70
2022-10-05T18:33:10.129Z,24.90
2022-10-05T18:35:50.702Z,25.10
2022-10-05T18:38:35.065Z,24.80
2022-10-05T18:41:14.961Z,25.20
2022-10-05T18:43:51.269Z,24.90
2022-10-05T18:46:35.671Z,24.60
2022-10-05T18:49:11.303Z,24.70
2022-10-05T18:51:51.915Z,24.90
2022-10-05T18:54:34.788Z,24.80
2022-10-05T18:57:31.513Z,24.90
2022-10-05T19:00:04.817Z,24.70
2022-10-05T19:02:38.685Z,24.80
2022-10-05T19:05:46.389Z,25.10
2022-10-05T19:08:18.866Z,25.30
2022-10-05T19:10:51.566Z,25.60
2022-10-05T19:13:33.178Z,25.70
2022-10-05T19:16:15.529Z,25.60
2022-10-05T19:19:12.642Z,25.70
2022-10-05T19:21:55.647Z,25.80
2022-10-05T19:24:46.827Z,25.80
2022-10-05T19:27:22.883Z,25.60
2022-10-05T19:30:15.471Z,25.60
2022-10-05T19:32:54.022Z,25.60
2022-10-05T19:35:29.463Z,25.80
2022-10-05T19:38:15.227Z,25.80
2022-10-05T19:40:57.255Z,26.00
2022-10-05T19:43:46.575Z,26.00
2022-10-05T19:46:25.305Z,26.00
2022-10-05T19:48:54.731Z,25.90
2022-10-05T19:51:30.319Z,25.90
2022-10-05T19:54:02.861Z,26.00
2022-10-05T19:56:34.712Z,25.70
2022-10-05T19:59:13.373Z,24.80
2022-10-05T20:01:51.027Z,24.60
2022-10-05T20:04:33.936Z,24.90
2022-10-05T20:07:02.247Z,25.10
2022-10-05T20:09:31.015Z,24.90
2022-10-05T20:12:03.823Z,25.00
2022-10-05T20:14:32.883Z,25.10
2022-10-05T20:17:45.632Z,25.20
2022-10-05T20:20:36.482Z,25.30
2022-10-05T20:23:21.995Z,25.30
2022-10-05T20:26:10.671Z,25.30
2022-10-05T20:28:39.002Z,25.40
2022-10-05T20:31:07.770Z,25.50
2022-10-05T20:33:37.087Z,25.50
2022-10-05T20:36:05.659Z,25.60
2022-10-05T20:38:40.083Z,25.60
2022-10-05T20:41:12.271Z,25.50
2022-10-05T20:43:42.457Z,25.50
2022-10-05T20:46:10.412Z,25.40
2022-10-05T20:48:42.371Z,25.40
2022-10-05T20:51:10.297Z,25.30
2022-10-05T20:53:38.184Z,25.30
2022-10-05T20:56:06.594Z,25.20
2022-10-05T20:58:34.497Z,25.10
2022-10-05T21:01:19.587Z,25.20
2022-10-05T21:03:49.606Z,25.20
2022-10-05T21:06:18.860Z,25.20
2022-10-05T21:08:47.117Z,25.20
2022-10-05T21:11:15.271Z,25.00
2022-10-05T21:13:45.123Z,25.10
2022-10-05T21:16:13.944Z,25.20
2022-10-05T21:18:42.374Z,25.20
2022-10-05T21:21:12.041Z,24.90
2022-10-05T21:23:39.996Z,25.20
2022-10-05T21:26:08.277Z,25.10
2022-10-05T21:28:36.582Z,25.10
2022-10-05T21:31:04.531Z,25.20
2022-10-05T21:33:32.596Z,25.10
2022-10-05T21:36:00.665Z,25.10
2022-10-05T21:38:30.595Z,25.10
2022-10-05T21:40:58.716Z,25.10
2022-10-05T21:43:27.150Z,24.90
2022-10-05T21:45:57.816Z,24.80
2022-10-05T21:48:26.955Z,24.40
2022-10-05T21:50:55.466Z,24.00
2022-10-05T21:53:28.270Z,23.80
2022-10-05T21:56:02.703Z,24.10
2022-10-05T21:58:31.801Z,24.20
2022-10-05T22:00:59.890Z,24.20
2022-10-05T22:03:30.938Z,23.80
2022-10-05T22:05:58.977Z,23.90
2022-10-05T22:08:29.823Z,24.20
2022-10-05T22:11:00.039Z,24.40
2022-10-05T22:13:40.089Z,24.50
2022-10-05T22:16:08.540Z,24.60
2022-10-05T22:18:36.525Z,24.60
2022-10-05T22:21:06.155Z,24.70
2022-10-05T22:23:35.688Z,24.80
2022-10-05T22:26:06.095Z,24.80
2022-10-05T22:28:35.264Z,24.70
2022-10-05T22:31:05.587Z,24.70
2022-10-05T22:33:33.641Z,24.50
2022-10-05T22:36:01.722Z,24.30
2022-10-05T22:38:30.873Z,24.30
2022-10-05T22:40:59.037Z,24.30
2022-10-05T22:43:28.926Z,24.40
2022-10-05T22:45:57.185Z,24.30
2022-10-05T22:48:25.399Z,24.20
2022-10-05T22:50:53.579Z,24.20
2022-10-05T22:53:21.493Z,23.70
2022-10-05T22:55:49.376Z,23.90
2022-10-05T22:58:17.301Z,23.90
2022-10-05T23:00:58.345Z,23.90
2022-10-05T23:03:27.810Z,23.90
2022-10-05T23:06:00.092Z,23.90
2022-10-05T23:08:30.956Z,24.10
2022-10-05T23:11:03.007Z,24.10
2022-10-05T23:13:31.667Z,24.00
2022-10-05T23:16:06.803Z,24.00
2022-10-05T23:18:35.296Z,23.80
2022-10-05T23:21:03.485Z,23.90
2022-10-05T23:23:31.376Z,23.90
2022-10-05T23:26:03.091Z,24.00
2022-10-05T23:28:31.854Z,24.10
2022-10-05T23:31:02.380Z,24.00
2022-10-05T23:33:31.349Z,23.90
2022-10-05T23:36:00.350Z,23.70
2022-10-05T23:38:28.843Z,23.70
2022-10-05T23:40:59.771Z,23.80
2022-10-05T23:43:28.571Z,23.60
2022-10-05T23:45:57.094Z,23.50
2022-10-05T23:48:26.904Z,23.50
2022-10-05T23:50:56.368Z,23.50
2022-10-05T23:53:24.493Z,23.60
2022-10-05T23:55:53.225Z,23.40
2022-10-05T23:58:22.238Z,23.40
